sensor_id;sensor_type;location;lat;lon;timestamp;temperature;humidity
44431;DHT22;30135;47.866;-4.222;2023-03-14T00:00:13;11.90;97.30
44431;DHT22;30135;47.866;-4.222;2023-03-14T00:02:40;11.90;97.10
44431;DHT22;30135;47.866;-4.222;2023-03-14T00:05:07;11.90;97.20
44431;DHT22;30135;47.866;-4.222;2023-03-14T00:07:35;11.90;97.30
44431;DHT22;30135;47.866;-4.222;2023-03-14T00:10:09;11.90;97.00
44431;DHT22;30135;47.866;-4.222;2023-03-14T00:12:36;11.90;96.90
44431;DHT22;30135;47.866;-4.222;2023-03-14T00:15:03;11.90;96.80
44431;DHT22;30135;47.866;-4.222;2023-03-14T00:17:30;11.80;96.80
44431;DHT22;30135;47.866;-4.222;2023-03-14T00:19:56;11.80;96.70
44431;DHT22;30135;47.866;-4.222;2023-03-14T00:22:22;11.80;96.50
44431;DHT22;30135;47.866;-4.222;2023-03-14T00:24:48;11.80;96.50
44431;DHT22;30135;47.866;-4.222;2023-03-14T00:27:14;11.80;96.30
44431;DHT22;30135;47.866;-4.222;2023-03-14T00:29:42;11.80;96.30
44431;DHT22;30135;47.866;-4.222;2023-03-14T00:32:08;11.80;96.10
44431;DHT22;30135;47.866;-4.222;2023-03-14T00:34:34;11.70;96.10
44431;DHT22;30135;47.866;-4.222;2023-03-14T00:37:00;11.70;96.10
44431;DHT22;30135;47.866;-4.222;2023-03-14T00:39:26;11.70;96.00
44431;DHT22;30135;47.866;-4.222;2023-03-14T00:41:59;11.70;95.90
44431;DHT22;30135;47.866;-4.222;2023-03-14T00:44:25;11.70;95.80
44431;DHT22;30135;47.866;-4.222;2023-03-14T00:46:51;11.70;95.80
44431;DHT22;30135;47.866;-4.222;2023-03-14T00:49:17;11.70;95.80
44431;DHT22;30135;47.866;-4.222;2023-03-14T00:51:43;11.70;95.80
44431;DHT22;30135;47.866;-4.222;2023-03-14T00:54:08;11.70;95.70
44431;DHT22;30135;47.866;-4.222;2023-03-14T00:56:34;11.60;95.60
44431;DHT22;30135;47.866;-4.222;2023-03-14T00:59:00;11.60;95.50
44431;DHT22;30135;47.866;-4.222;2023-03-14T01:01:26;11.60;95.50
44431;DHT22;30135;47.866;-4.222;2023-03-14T01:03:54;11.60;95.50
44431;DHT22;30135;47.866;-4.222;2023-03-14T01:06:24;11.60;95.50
44431;DHT22;30135;47.866;-4.222;2023-03-14T01:08:52;11.60;95.40
44431;DHT22;30135;47.866;-4.222;2023-03-14T01:11:25;11.60;95.40
44431;DHT22;30135;47.866;-4.222;2023-03-14T01:13:58;11.60;95.30
44431;DHT22;30135;47.866;-4.222;2023-03-14T01:16:30;11.60;95.30
44431;DHT22;30135;47.866;-4.222;2023-03-14T01:19:00;11.50;95.30
44431;DHT22;30135;47.866;-4.222;2023-03-14T01:21:29;11.50;95.20
44431;DHT22;30135;47.866;-4.222;2023-03-14T01:24:01;11.50;95.10
44431;DHT22;30135;47.866;-4.222;2023-03-14T01:26:31;11.50;95.10
44431;DHT22;30135;47.866;-4.222;2023-03-14T01:28:58;11.50;95.00
44431;DHT22;30135;47.866;-4.222;2023-03-14T01:31:25;11.50;94.90
44431;DHT22;30135;47.866;-4.222;2023-03-14T01:33:52;11.50;94.80
44431;DHT22;30135;47.866;-4.222;2023-03-14T01:36:18;11.40;94.70
44431;DHT22;30135;47.866;-4.222;2023-03-14T01:38:44;11.40;94.60
44431;DHT22;30135;47.866;-4.222;2023-03-14T01:41:16;11.40;94.50
44431;DHT22;30135;47.866;-4.222;2023-03-14T01:43:45;11.40;94.40
44431;DHT22;30135;47.866;-4.222;2023-03-14T01:46:34;11.40;94.40
44431;DHT22;30135;47.866;-4.222;2023-03-14T01:52:02;11.40;94.30
44431;DHT22;30135;47.866;-4.222;2023-03-14T01:54:41;11.40;94.30
44431;DHT22;30135;47.866;-4.222;2023-03-14T01:57:35;11.30;94.40
44431;DHT22;30135;47.866;-4.222;2023-03-14T02:00:09;11.30;94.30
44431;DHT22;30135;47.866;-4.222;2023-03-14T02:02:43;11.30;94.20
44431;DHT22;30135;47.866;-4.222;2023-03-14T02:05:13;11.30;94.20
44431;DHT22;30135;47.866;-4.222;2023-03-14T02:07:50;11.20;94.20
44431;DHT22;30135;47.866;-4.222;2023-03-14T02:10:21;11.30;94.10
44431;DHT22;30135;47.866;-4.222;2023-03-14T02:12:50;11.20;94.10
44431;DHT22;30135;47.866;-4.222;2023-03-14T02:15:18;11.20;94.10
44431;DHT22;30135;47.866;-4.222;2023-03-14T02:17:44;11.20;94.20
44431;DHT22;30135;47.866;-4.222;2023-03-14T02:20:48;11.20;94.20
44431;DHT22;30135;47.866;-4.222;2023-03-14T02:26:39;11.10;94.10
44431;DHT22;30135;47.866;-4.222;2023-03-14T02:29:26;11.10;93.90
44431;DHT22;30135;47.866;-4.222;2023-03-14T02:31:53;11.10;93.80
44431;DHT22;30135;47.866;-4.222;2023-03-14T02:34:19;11.10;93.70
44431;DHT22;30135;47.866;-4.222;2023-03-14T02:36:46;11.10;93.60
44431;DHT22;30135;47.866;-4.222;2023-03-14T02:39:19;11.00;93.40
44431;DHT22;30135;47.866;-4.222;2023-03-14T02:41:49;11.00;93.30
44431;DHT22;30135;47.866;-4.222;2023-03-14T02:44:15;11.00;93.40
44431;DHT22;30135;47.866;-4.222;2023-03-14T02:46:41;10.90;93.40
44431;DHT22;30135;47.866;-4.222;2023-03-14T02:49:11;10.90;93.40
44431;DHT22;30135;47.866;-4.222;2023-03-14T02:51:38;10.90;93.40
44431;DHT22;30135;47.866;-4.222;2023-03-14T02:54:06;10.90;93.30
44431;DHT22;30135;47.866;-4.222;2023-03-14T02:56:32;10.90;93.20
44431;DHT22;30135;47.866;-4.222;2023-03-14T02:58:58;10.90;93.10
44431;DHT22;30135;47.866;-4.222;2023-03-14T03:01:25;10.90;93.00
44431;DHT22;30135;47.866;-4.222;2023-03-14T03:03:51;10.90;92.80
44431;DHT22;30135;47.866;-4.222;2023-03-14T03:06:17;10.80;92.80
44431;DHT22;30135;47.866;-4.222;2023-03-14T03:08:43;10.80;92.80
44431;DHT22;30135;47.866;-4.222;2023-03-14T03:11:09;10.80;92.70
44431;DHT22;30135;47.866;-4.222;2023-03-14T03:13:35;10.80;92.50
44431;DHT22;30135;47.866;-4.222;2023-03-14T03:16:01;10.70;92.50
44431;DHT22;30135;47.866;-4.222;2023-03-14T03:18:27;10.80;92.50
44431;DHT22;30135;47.866;-4.222;2023-03-14T03:20:53;10.70;92.30
44431;DHT22;30135;47.866;-4.222;2023-03-14T03:23:19;10.70;92.30
44431;DHT22;30135;47.866;-4.222;2023-03-14T03:25:51;10.70;92.40
44431;DHT22;30135;47.866;-4.222;2023-03-14T03:28:18;10.70;92.30
44431;DHT22;30135;47.866;-4.222;2023-03-14T03:30:44;10.60;92.30
44431;DHT22;30135;47.866;-4.222;2023-03-14T03:33:11;10.70;92.30
44431;DHT22;30135;47.866;-4.222;2023-03-14T03:35:49;10.70;92.20
44431;DHT22;30135;47.866;-4.222;2023-03-14T03:38:16;10.70;92.10
44431;DHT22;30135;47.866;-4.222;2023-03-14T03:40:42;10.70;92.10
44431;DHT22;30135;47.866;-4.222;2023-03-14T03:43:08;10.70;92.00
44431;DHT22;30135;47.866;-4.222;2023-03-14T03:45:34;10.60;91.90
44431;DHT22;30135;47.866;-4.222;2023-03-14T03:48:00;10.60;91.80
44431;DHT22;30135;47.866;-4.222;2023-03-14T03:50:26;10.60;91.80
44431;DHT22;30135;47.866;-4.222;2023-03-14T03:52:52;10.60;91.80
44431;DHT22;30135;47.866;-4.222;2023-03-14T03:55:18;10.50;91.70
44431;DHT22;30135;47.866;-4.222;2023-03-14T03:57:44;10.50;91.70
44431;DHT22;30135;47.866;-4.222;2023-03-14T04:00:11;10.50;92.20
44431;DHT22;30135;47.866;-4.222;2023-03-14T04:02:38;10.50;91.80
44431;DHT22;30135;47.866;-4.222;2023-03-14T04:05:04;10.50;91.90
44431;DHT22;30135;47.866;-4.222;2023-03-14T04:07:33;10.50;91.90
44431;DHT22;30135;47.866;-4.222;2023-03-14T04:09:59;10.50;91.90
44431;DHT22;30135;47.866;-4.222;2023-03-14T04:12:25;10.50;91.90
44431;DHT22;30135;47.866;-4.222;2023-03-14T04:14:51;10.50;91.90
44431;DHT22;30135;47.866;-4.222;2023-03-14T04:17:17;10.50;91.80
44431;DHT22;30135;47.866;-4.222;2023-03-14T04:19:43;10.50;91.60
44431;DHT22;30135;47.866;-4.222;2023-03-14T04:22:09;10.50;91.60
44431;DHT22;30135;47.866;-4.222;2023-03-14T04:24:35;10.50;91.70
44431;DHT22;30135;47.866;-4.222;2023-03-14T04:27:01;10.50;91.60
44431;DHT22;30135;47.866;-4.222;2023-03-14T04:29:27;10.40;91.60
44431;DHT22;30135;47.866;-4.222;2023-03-14T04:31:53;10.40;91.50
44431;DHT22;30135;47.866;-4.222;2023-03-14T04:34:18;10.40;91.50
44431;DHT22;30135;47.866;-4.222;2023-03-14T04:36:47;10.40;91.40
44431;DHT22;30135;47.866;-4.222;2023-03-14T04:39:13;10.40;91.50
44431;DHT22;30135;47.866;-4.222;2023-03-14T04:41:39;10.40;91.50
44431;DHT22;30135;47.866;-4.222;2023-03-14T04:44:05;10.40;91.60
44431;DHT22;30135;47.866;-4.222;2023-03-14T04:46:30;10.40;91.50
44431;DHT22;30135;47.866;-4.222;2023-03-14T04:48:56;10.40;91.50
44431;DHT22;30135;47.866;-4.222;2023-03-14T04:51:22;10.30;91.50
44431;DHT22;30135;47.866;-4.222;2023-03-14T04:53:52;10.30;91.50
44431;DHT22;30135;47.866;-4.222;2023-03-14T04:56:19;10.30;91.50
44431;DHT22;30135;47.866;-4.222;2023-03-14T04:58:45;10.30;91.60
44431;DHT22;30135;47.866;-4.222;2023-03-14T05:01:11;10.30;91.60
44431;DHT22;30135;47.866;-4.222;2023-03-14T05:03:38;10.30;91.50
44431;DHT22;30135;47.866;-4.222;2023-03-14T05:06:04;10.30;91.50
44431;DHT22;30135;47.866;-4.222;2023-03-14T05:08:30;10.30;91.60
44431;DHT22;30135;47.866;-4.222;2023-03-14T05:10:57;10.30;91.60
44431;DHT22;30135;47.866;-4.222;2023-03-14T05:13:24;10.30;91.60
44431;DHT22;30135;47.866;-4.222;2023-03-14T05:15:50;10.30;91.70
44431;DHT22;30135;47.866;-4.222;2023-03-14T05:18:17;10.30;91.60
44431;DHT22;30135;47.866;-4.222;2023-03-14T05:20:43;10.30;91.60
44431;DHT22;30135;47.866;-4.222;2023-03-14T05:23:09;10.20;91.50
44431;DHT22;30135;47.866;-4.222;2023-03-14T05:25:35;10.30;91.60
44431;DHT22;30135;47.866;-4.222;2023-03-14T05:28:02;10.30;91.70
44431;DHT22;30135;47.866;-4.222;2023-03-14T05:30:28;10.20;91.70
44431;DHT22;30135;47.866;-4.222;2023-03-14T05:32:56;10.30;91.70
44431;DHT22;30135;47.866;-4.222;2023-03-14T05:35:22;10.20;91.70
44431;DHT22;30135;47.866;-4.222;2023-03-14T05:37:48;10.30;91.80
44431;DHT22;30135;47.866;-4.222;2023-03-14T05:40:14;10.30;91.80
44431;DHT22;30135;47.866;-4.222;2023-03-14T05:42:40;10.30;91.80
44431;DHT22;30135;47.866;-4.222;2023-03-14T05:45:06;10.30;91.80
44431;DHT22;30135;47.866;-4.222;2023-03-14T05:47:33;10.30;91.80
44431;DHT22;30135;47.866;-4.222;2023-03-14T05:49:59;10.30;91.90
44431;DHT22;30135;47.866;-4.222;2023-03-14T05:52:25;10.30;91.90
44431;DHT22;30135;47.866;-4.222;2023-03-14T05:54:50;10.30;91.90
44431;DHT22;30135;47.866;-4.222;2023-03-14T05:57:16;10.30;92.00
44431;DHT22;30135;47.866;-4.222;2023-03-14T05:59:45;10.30;92.00
44431;DHT22;30135;47.866;-4.222;2023-03-14T06:02:11;10.40;92.00
44431;DHT22;30135;47.866;-4.222;2023-03-14T06:04:37;10.40;91.90
44431;DHT22;30135;47.866;-4.222;2023-03-14T06:07:03;10.40;91.90
44431;DHT22;30135;47.866;-4.222;2023-03-14T06:09:29;10.40;91.80
44431;DHT22;30135;47.866;-4.222;2023-03-14T06:11:55;10.40;91.80
44431;DHT22;30135;47.866;-4.222;2023-03-14T06:14:21;10.40;91.80
44431;DHT22;30135;47.866;-4.222;2023-03-14T06:16:47;10.40;91.70
44431;DHT22;30135;47.866;-4.222;2023-03-14T06:19:16;10.40;91.70
44431;DHT22;30135;47.866;-4.222;2023-03-14T06:21:42;10.40;91.70
44431;DHT22;30135;47.866;-4.222;2023-03-14T06:24:08;10.40;91.60
44431;DHT22;30135;47.866;-4.222;2023-03-14T06:26:34;10.40;91.60
44431;DHT22;30135;47.866;-4.222;2023-03-14T06:29:00;10.40;91.60
44431;DHT22;30135;47.866;-4.222;2023-03-14T06:31:32;10.40;91.50
44431;DHT22;30135;47.866;-4.222;2023-03-14T06:33:58;10.40;91.50
44431;DHT22;30135;47.866;-4.222;2023-03-14T06:36:25;10.40;91.50
44431;DHT22;30135;47.866;-4.222;2023-03-14T06:38:51;10.40;91.40
44431;DHT22;30135;47.866;-4.222;2023-03-14T06:41:17;10.40;91.50
44431;DHT22;30135;47.866;-4.222;2023-03-14T06:43:43;10.40;91.80
44431;DHT22;30135;47.866;-4.222;2023-03-14T06:46:09;10.40;91.40
44431;DHT22;30135;47.866;-4.222;2023-03-14T06:48:35;10.30;91.40
44431;DHT22;30135;47.866;-4.222;2023-03-14T06:51:01;10.30;91.50
44431;DHT22;30135;47.866;-4.222;2023-03-14T06:53:27;10.40;91.50
44431;DHT22;30135;47.866;-4.222;2023-03-14T06:55:53;10.30;91.50
44431;DHT22;30135;47.866;-4.222;2023-03-14T06:58:19;10.30;91.60
44431;DHT22;30135;47.866;-4.222;2023-03-14T07:00:45;10.30;91.60
44431;DHT22;30135;47.866;-4.222;2023-03-14T07:03:15;10.30;91.70
44431;DHT22;30135;47.866;-4.222;2023-03-14T07:05:47;10.30;91.60
44431;DHT22;30135;47.866;-4.222;2023-03-14T07:08:13;10.40;91.70
44431;DHT22;30135;47.866;-4.222;2023-03-14T07:10:39;10.30;91.70
44431;DHT22;30135;47.866;-4.222;2023-03-14T07:13:05;10.40;91.80
44431;DHT22;30135;47.866;-4.222;2023-03-14T07:15:31;10.40;91.90
44431;DHT22;30135;47.866;-4.222;2023-03-14T07:17:57;10.30;91.90
44431;DHT22;30135;47.866;-4.222;2023-03-14T07:20:23;10.40;92.00
44431;DHT22;30135;47.866;-4.222;2023-03-14T07:22:50;10.40;92.00
44431;DHT22;30135;47.866;-4.222;2023-03-14T07:25:17;10.40;92.00
44431;DHT22;30135;47.866;-4.222;2023-03-14T07:27:44;10.40;92.00
44431;DHT22;30135;47.866;-4.222;2023-03-14T07:30:11;10.40;92.00
44431;DHT22;30135;47.866;-4.222;2023-03-14T07:32:38;10.40;92.00
44431;DHT22;30135;47.866;-4.222;2023-03-14T07:35:04;10.40;92.00
44431;DHT22;30135;47.866;-4.222;2023-03-14T07:37:34;10.40;91.90
44431;DHT22;30135;47.866;-4.222;2023-03-14T07:40:00;10.40;91.80
44431;DHT22;30135;47.866;-4.222;2023-03-14T07:42:26;10.40;91.80
44431;DHT22;30135;47.866;-4.222;2023-03-14T07:44:52;10.40;91.70
44431;DHT22;30135;47.866;-4.222;2023-03-14T07:47:18;10.40;91.70
44431;DHT22;30135;47.866;-4.222;2023-03-14T07:49:44;10.40;91.60
44431;DHT22;30135;47.866;-4.222;2023-03-14T07:52:10;10.50;91.60
44431;DHT22;30135;47.866;-4.222;2023-03-14T07:54:35;10.50;91.60
44431;DHT22;30135;47.866;-4.222;2023-03-14T07:57:01;10.50;91.50
44431;DHT22;30135;47.866;-4.222;2023-03-14T07:59:28;10.50;91.50
44431;DHT22;30135;47.866;-4.222;2023-03-14T08:01:54;10.50;91.40
44431;DHT22;30135;47.866;-4.222;2023-03-14T08:04:19;10.50;91.30
44431;DHT22;30135;47.866;-4.222;2023-03-14T08:06:45;10.50;91.30
44431;DHT22;30135;47.866;-4.222;2023-03-14T08:09:11;10.50;91.20
44431;DHT22;30135;47.866;-4.222;2023-03-14T08:11:37;10.60;91.20
44431;DHT22;30135;47.866;-4.222;2023-03-14T08:14:03;10.60;91.10
44431;DHT22;30135;47.866;-4.222;2023-03-14T08:16:29;10.60;90.90
44431;DHT22;30135;47.866;-4.222;2023-03-14T08:18:55;10.50;90.80
44431;DHT22;30135;47.866;-4.222;2023-03-14T08:21:21;10.60;90.80
44431;DHT22;30135;47.866;-4.222;2023-03-14T08:23:47;10.60;90.70
44431;DHT22;30135;47.866;-4.222;2023-03-14T08:26:14;10.60;90.70
44431;DHT22;30135;47.866;-4.222;2023-03-14T08:28:39;10.60;90.60
44431;DHT22;30135;47.866;-4.222;2023-03-14T08:31:06;10.60;90.60
44431;DHT22;30135;47.866;-4.222;2023-03-14T08:33:32;10.60;90.60
44431;DHT22;30135;47.866;-4.222;2023-03-14T08:35:59;10.60;90.50
44431;DHT22;30135;47.866;-4.222;2023-03-14T08:38:26;10.60;90.50
44431;DHT22;30135;47.866;-4.222;2023-03-14T08:40:59;10.60;90.50
44431;DHT22;30135;47.866;-4.222;2023-03-14T08:43:27;10.60;90.50
44431;DHT22;30135;47.866;-4.222;2023-03-14T08:45:53;10.60;90.50
44431;DHT22;30135;47.866;-4.222;2023-03-14T08:48:31;10.60;90.60
44431;DHT22;30135;47.866;-4.222;2023-03-14T08:51:13;10.60;90.60
44431;DHT22;30135;47.866;-4.222;2023-03-14T08:53:40;10.60;90.60
44431;DHT22;30135;47.866;-4.222;2023-03-14T08:56:07;10.60;90.70
44431;DHT22;30135;47.866;-4.222;2023-03-14T08:58:36;10.60;90.70
44431;DHT22;30135;47.866;-4.222;2023-03-14T09:01:08;10.60;90.70
44431;DHT22;30135;47.866;-4.222;2023-03-14T09:03:35;10.70;90.70
44431;DHT22;30135;47.866;-4.222;2023-03-14T09:06:09;10.60;90.60
44431;DHT22;30135;47.866;-4.222;2023-03-14T09:08:36;10.70;90.70
44431;DHT22;30135;47.866;-4.222;2023-03-14T09:11:02;10.70;90.70
44431;DHT22;30135;47.866;-4.222;2023-03-14T09:13:28;10.80;90.70
44431;DHT22;30135;47.866;-4.222;2023-03-14T09:15:56;10.70;90.60
44431;DHT22;30135;47.866;-4.222;2023-03-14T09:18:23;10.80;90.70
44431;DHT22;30135;47.866;-4.222;2023-03-14T09:20:49;10.80;90.70
44431;DHT22;30135;47.866;-4.222;2023-03-14T09:23:15;10.80;90.60
44431;DHT22;30135;47.866;-4.222;2023-03-14T09:25:41;10.80;90.60
44431;DHT22;30135;47.866;-4.222;2023-03-14T09:28:07;10.90;90.40
44431;DHT22;30135;47.866;-4.222;2023-03-14T09:30:33;10.90;90.30
44431;DHT22;30135;47.866;-4.222;2023-03-14T09:32:59;10.90;90.20
44431;DHT22;30135;47.866;-4.222;2023-03-14T09:35:26;10.90;90.30
44431;DHT22;30135;47.866;-4.222;2023-03-14T09:37:52;10.90;90.20
44431;DHT22;30135;47.866;-4.222;2023-03-14T09:40:19;11.00;90.10
44431;DHT22;30135;47.866;-4.222;2023-03-14T09:42:48;11.00;90.10
44431;DHT22;30135;47.866;-4.222;2023-03-14T09:45:26;11.00;90.00
44431;DHT22;30135;47.866;-4.222;2023-03-14T09:47:55;11.00;90.10
44431;DHT22;30135;47.866;-4.222;2023-03-14T09:50:23;11.00;89.80
44431;DHT22;30135;47.866;-4.222;2023-03-14T09:53:02;11.00;90.00
44431;DHT22;30135;47.866;-4.222;2023-03-14T09:55:30;11.10;89.80
44431;DHT22;30135;47.866;-4.222;2023-03-14T09:58:08;11.10;89.90
44431;DHT22;30135;47.866;-4.222;2023-03-14T10:00:44;11.10;89.70
44431;DHT22;30135;47.866;-4.222;2023-03-14T10:05:41;11.10;89.50
44431;DHT22;30135;47.866;-4.222;2023-03-14T10:08:10;11.10;89.60
44431;DHT22;30135;47.866;-4.222;2023-03-14T10:10:37;11.20;89.50
44431;DHT22;30135;47.866;-4.222;2023-03-14T10:15:52;11.20;88.80
44431;DHT22;30135;47.866;-4.222;2023-03-14T10:18:21;11.20;88.30
44431;DHT22;30135;47.866;-4.222;2023-03-14T10:21:01;11.30;88.00
44431;DHT22;30135;47.866;-4.222;2023-03-14T10:23:31;11.30;88.20
44431;DHT22;30135;47.866;-4.222;2023-03-14T10:28:45;11.30;87.50
44431;DHT22;30135;47.866;-4.222;2023-03-14T10:31:13;11.30;87.70
44431;DHT22;30135;47.866;-4.222;2023-03-14T10:33:40;11.30;87.60
44431;DHT22;30135;47.866;-4.222;2023-03-14T10:38:47;11.40;87.10
44431;DHT22;30135;47.866;-4.222;2023-03-14T10:41:22;11.40;87.20
44431;DHT22;30135;47.866;-4.222;2023-03-14T10:43:52;11.40;87.00
44431;DHT22;30135;47.866;-4.222;2023-03-14T10:46:24;11.50;86.40
44431;DHT22;30135;47.866;-4.222;2023-03-14T10:48:52;11.50;86.70
44431;DHT22;30135;47.866;-4.222;2023-03-14T10:51:24;11.50;86.80
44431;DHT22;30135;47.866;-4.222;2023-03-14T10:54:15;11.60;86.30
44431;DHT22;30135;47.866;-4.222;2023-03-14T10:56:56;11.60;85.50
44431;DHT22;30135;47.866;-4.222;2023-03-14T10:59:33;11.60;84.90
44431;DHT22;30135;47.866;-4.222;2023-03-14T11:08:09;11.60;84.60
44431;DHT22;30135;47.866;-4.222;2023-03-14T11:10:39;11.70;83.80
44431;DHT22;30135;47.866;-4.222;2023-03-14T11:13:28;11.70;83.50
44431;DHT22;30135;47.866;-4.222;2023-03-14T11:16:27;11.70;83.50
44431;DHT22;30135;47.866;-4.222;2023-03-14T11:22:14;11.70;83.10
44431;DHT22;30135;47.866;-4.222;2023-03-14T11:28:18;11.80;82.70
44431;DHT22;30135;47.866;-4.222;2023-03-14T11:36:43;11.90;82.40
44431;DHT22;30135;47.866;-4.222;2023-03-14T11:39:16;11.90;82.50
44431;DHT22;30135;47.866;-4.222;2023-03-14T11:41:46;11.90;82.00
44431;DHT22;30135;47.866;-4.222;2023-03-14T11:44:34;12.00;81.70
44431;DHT22;30135;47.866;-4.222;2023-03-14T11:47:12;12.00;81.80
44431;DHT22;30135;47.866;-4.222;2023-03-14T11:49:59;12.00;81.60
44431;DHT22;30135;47.866;-4.222;2023-03-14T11:52:48;12.00;81.10
44431;DHT22;30135;47.866;-4.222;2023-03-14T11:55:31;12.00;80.60
44431;DHT22;30135;47.866;-4.222;2023-03-14T11:58:03;12.10;80.50
44431;DHT22;30135;47.866;-4.222;2023-03-14T12:00:38;12.10;81.00
44431;DHT22;30135;47.866;-4.222;2023-03-14T12:03:14;12.10;80.70
44431;DHT22;30135;47.866;-4.222;2023-03-14T12:07:04;12.20;80.80
44431;DHT22;30135;47.866;-4.222;2023-03-14T12:09:15;12.20;80.50
44431;DHT22;30135;47.866;-4.222;2023-03-14T12:11:50;12.20;80.20
44431;DHT22;30135;47.866;-4.222;2023-03-14T12:14:34;12.20;81.00
44431;DHT22;30135;47.866;-4.222;2023-03-14T12:17:05;12.20;80.60
44431;DHT22;30135;47.866;-4.222;2023-03-14T12:19:38;12.20;80.50
44431;DHT22;30135;47.866;-4.222;2023-03-14T12:24:49;12.30;80.60
44431;DHT22;30135;47.866;-4.222;2023-03-14T12:30:27;12.40;80.30
44431;DHT22;30135;47.866;-4.222;2023-03-14T12:35:45;12.40;79.80
44431;DHT22;30135;47.866;-4.222;2023-03-14T12:38:28;12.40;79.50
44431;DHT22;30135;47.866;-4.222;2023-03-14T12:41:15;12.50;79.10
44431;DHT22;30135;47.866;-4.222;2023-03-14T12:43:49;12.50;79.70
44431;DHT22;30135;47.866;-4.222;2023-03-14T12:46:22;12.60;79.70
44431;DHT22;30135;47.866;-4.222;2023-03-14T12:49:04;12.60;79.30
44431;DHT22;30135;47.866;-4.222;2023-03-14T12:51:41;12.70;79.50
44431;DHT22;30135;47.866;-4.222;2023-03-14T13:00:17;12.70;80.20
44431;DHT22;30135;47.866;-4.222;2023-03-14T13:02:47;12.80;78.90
44431;DHT22;30135;47.866;-4.222;2023-03-14T13:05:21;12.80;79.10
44431;DHT22;30135;47.866;-4.222;2023-03-14T13:10:28;12.80;79.00
44431;DHT22;30135;47.866;-4.222;2023-03-14T13:15:54;12.90;78.50
44431;DHT22;30135;47.866;-4.222;2023-03-14T13:18:50;12.90;78.60
44431;DHT22;30135;47.866;-4.222;2023-03-14T13:21:27;12.90;77.90
44431;DHT22;30135;47.866;-4.222;2023-03-14T13:23:59;12.90;78.10
44431;DHT22;30135;47.866;-4.222;2023-03-14T13:26:36;12.90;78.00
44431;DHT22;30135;47.866;-4.222;2023-03-14T13:29:29;12.90;77.90
44431;DHT22;30135;47.866;-4.222;2023-03-14T13:32:02;12.90;77.30
44431;DHT22;30135;47.866;-4.222;2023-03-14T13:34:38;12.90;77.90
44431;DHT22;30135;47.866;-4.222;2023-03-14T13:37:04;13.00;78.20
44431;DHT22;30135;47.866;-4.222;2023-03-14T13:39:30;12.90;77.80
44431;DHT22;30135;47.866;-4.222;2023-03-14T13:42:00;12.90;77.90
44431;DHT22;30135;47.866;-4.222;2023-03-14T13:44:30;12.90;78.10
44431;DHT22;30135;47.866;-4.222;2023-03-14T13:47:03;12.90;78.00
44431;DHT22;30135;47.866;-4.222;2023-03-14T13:49:32;12.90;78.10
44431;DHT22;30135;47.866;-4.222;2023-03-14T13:52:01;12.90;78.20
44431;DHT22;30135;47.866;-4.222;2023-03-14T13:54:29;12.80;78.20
44431;DHT22;30135;47.866;-4.222;2023-03-14T13:57:05;12.80;78.00
44431;DHT22;30135;47.866;-4.222;2023-03-14T13:59:33;12.80;78.30
44431;DHT22;30135;47.866;-4.222;2023-03-14T14:02:20;12.80;78.50
44431;DHT22;30135;47.866;-4.222;2023-03-14T14:04:47;12.80;79.00
44431;DHT22;30135;47.866;-4.222;2023-03-14T14:07:16;12.80;78.30
44431;DHT22;30135;47.866;-4.222;2023-03-14T14:09:50;12.80;78.00
44431;DHT22;30135;47.866;-4.222;2023-03-14T14:12:25;12.80;77.90
44431;DHT22;30135;47.866;-4.222;2023-03-14T14:18:03;12.70;77.70
44431;DHT22;30135;47.866;-4.222;2023-03-14T14:20:38;12.70;77.60
44431;DHT22;30135;47.866;-4.222;2023-03-14T14:23:10;12.70;77.20
44431;DHT22;30135;47.866;-4.222;2023-03-14T14:25:43;12.70;77.30
44431;DHT22;30135;47.866;-4.222;2023-03-14T14:28:23;12.70;77.70
44431;DHT22;30135;47.866;-4.222;2023-03-14T14:33:26;12.70;77.30
44431;DHT22;30135;47.866;-4.222;2023-03-14T14:35:58;12.70;77.50
44431;DHT22;30135;47.866;-4.222;2023-03-14T14:38:26;12.70;77.40
44431;DHT22;30135;47.866;-4.222;2023-03-14T14:40:55;12.70;77.20
44431;DHT22;30135;47.866;-4.222;2023-03-14T14:43:28;12.70;76.50
44431;DHT22;30135;47.866;-4.222;2023-03-14T14:45:57;12.70;77.70
44431;DHT22;30135;47.866;-4.222;2023-03-14T14:48:25;12.70;76.80
44431;DHT22;30135;47.866;-4.222;2023-03-14T14:50:59;12.70;76.50
44431;DHT22;30135;47.866;-4.222;2023-03-14T14:53:41;12.70;76.60
44431;DHT22;30135;47.866;-4.222;2023-03-14T14:56:21;12.70;76.30
44431;DHT22;30135;47.866;-4.222;2023-03-14T14:58:59;12.70;76.20
44431;DHT22;30135;47.866;-4.222;2023-03-14T15:01:38;12.70;76.70
44431;DHT22;30135;47.866;-4.222;2023-03-14T15:04:12;12.70;76.70
44431;DHT22;30135;47.866;-4.222;2023-03-14T15:06:43;12.70;76.60
44431;DHT22;30135;47.866;-4.222;2023-03-14T15:09:11;12.70;76.70
44431;DHT22;30135;47.866;-4.222;2023-03-14T15:11:37;12.70;76.60
44431;DHT22;30135;47.866;-4.222;2023-03-14T15:14:04;12.70;76.50
44431;DHT22;30135;47.866;-4.222;2023-03-14T15:16:31;12.70;76.60
44431;DHT22;30135;47.866;-4.222;2023-03-14T15:18:59;12.70;76.30
44431;DHT22;30135;47.866;-4.222;2023-03-14T15:21:27;12.70;75.60
44431;DHT22;30135;47.866;-4.222;2023-03-14T15:23:54;12.70;76.10
44431;DHT22;30135;47.866;-4.222;2023-03-14T15:26:26;12.70;76.50
44431;DHT22;30135;47.866;-4.222;2023-03-14T15:28:53;12.80;76.40
44431;DHT22;30135;47.866;-4.222;2023-03-14T15:31:20;12.80;75.80
44431;DHT22;30135;47.866;-4.222;2023-03-14T15:33:49;12.80;75.90
44431;DHT22;30135;47.866;-4.222;2023-03-14T15:36:29;12.80;76.10
44431;DHT22;30135;47.866;-4.222;2023-03-14T15:38:57;12.80;75.50
44431;DHT22;30135;47.866;-4.222;2023-03-14T15:41:24;12.80;75.70
44431;DHT22;30135;47.866;-4.222;2023-03-14T15:43:53;12.90;76.10
44431;DHT22;30135;47.866;-4.222;2023-03-14T15:46:19;12.90;76.30
44431;DHT22;30135;47.866;-4.222;2023-03-14T15:48:48;12.90;75.60
44431;DHT22;30135;47.866;-4.222;2023-03-14T15:51:16;12.90;75.80
44431;DHT22;30135;47.866;-4.222;2023-03-14T15:53:42;13.00;76.30
44431;DHT22;30135;47.866;-4.222;2023-03-14T15:56:14;13.00;75.90
44431;DHT22;30135;47.866;-4.222;2023-03-14T15:58:42;13.00;76.30
44431;DHT22;30135;47.866;-4.222;2023-03-14T16:01:12;13.00;76.30
44431;DHT22;30135;47.866;-4.222;2023-03-14T16:03:39;13.00;76.20
44431;DHT22;30135;47.866;-4.222;2023-03-14T16:06:05;13.00;76.40
44431;DHT22;30135;47.866;-4.222;2023-03-14T16:08:31;13.10;76.70
44431;DHT22;30135;47.866;-4.222;2023-03-14T16:10:58;13.10;76.70
44431;DHT22;30135;47.866;-4.222;2023-03-14T16:13:25;13.10;76.70
44431;DHT22;30135;47.866;-4.222;2023-03-14T16:16:00;13.10;76.50
44431;DHT22;30135;47.866;-4.222;2023-03-14T16:18:30;13.10;76.50
44431;DHT22;30135;47.866;-4.222;2023-03-14T16:21:03;13.10;76.20
44431;DHT22;30135;47.866;-4.222;2023-03-14T16:23:34;13.20;76.20
44431;DHT22;30135;47.866;-4.222;2023-03-14T16:26:05;13.20;76.30
44431;DHT22;30135;47.866;-4.222;2023-03-14T16:28:33;13.20;76.30
44431;DHT22;30135;47.866;-4.222;2023-03-14T16:31:04;13.10;76.10